Main page
METAR-TAF:

METAR-TAF

Airports :

Kish, Iran

Kish International Airport

latitude: 26-31-36N, longitude: 053-58-54E, elevation: 30 m

Current weather observation

The report was made 11 minutes ago, at 03:30 UTC
Wind 8 kt from the East/Southeast
Temperature 29°C
Humidity 79%
Pressure 1009 hPa
Visibility: 5000 m
mist

METAR: OIBK 290330Z 11008KT 5000 BR NSC 29/25 Q1009

Time: 08:11 (03:41 UTC)

Forecast

The report was made 4 hours and 41 minutes ago, at 23:00 UTC
Forecast valid from 29 at 00 UTC to 30 at 06 UTC
Wind 8 kt from the West/Northwest
Visibility: 6000 m
Temporary
from 29 at 01 UTC to 29 at 04 UTC
Wind 6 kt from the East/Southeast
Visibility: 4500 m
haze

TAF: OIBK 282300Z 2900/3006 29004MPS 6000 NSC TEMPO 2901/2904 11003MPS 4500 HZ NSC

Weather observations and forecasts of more than 4000 airports (METAR and TAF reports).

The available stations are represented by yellow and red dots on the map.

Hover mouse over dot to see the name of the station.

Then click to see weather observations and forecasts.

To change the map : click on the green buttons with a black cross to zoom in, on the green button with a dash to zoom out, or on the green arrows for adjacent maps.


METAR-TAF: